TimeMST,TemperatureF,Dew PointF,Humidity,Sea Level PressureIn,VisibilityMPH,Wind Direction,Wind SpeedMPH,Gust SpeedMPH,PrecipitationIn,Events,Conditions,WindDirDegrees,DateUTC
12:15 AM,46.4,26.6,46,29.90,10.0,ENE,5.8,-,N/A,,Clear,60,2012-12-07 07:15:00
12:35 AM,46.4,24.8,43,29.89,10.0,ENE,8.1,-,N/A,,Clear,60,2012-12-07 07:35:00
12:55 AM,46.4,24.8,43,29.89,10.0,Calm,Calm,-,N/A,,Clear,0,2012-12-07 07:55:00
1:15 AM,44.6,24.8,46,29.90,10.0,Calm,Calm,-,N/A,,Clear,0,2012-12-07 08:15:00
1:35 AM,44.6,24.8,46,29.90,10.0,Calm,Calm,-,N/A,,Clear,0,2012-12-07 08:35:00
1:55 AM,39.2,24.8,56,29.91,10.0,Calm,Calm,-,N/A,,Clear,0,2012-12-07 08:55:00
2:15 AM,37.4,23.0,56,29.90,10.0,Calm,Calm,-,N/A,,Clear,0,2012-12-07 09:15:00
2:35 AM,37.4,23.0,56,29.90,10.0,Calm,Calm,-,N/A,,Clear,0,2012-12-07 09:35:00
2:55 AM,35.6,23.0,60,29.90,10.0,Calm,Calm,-,N/A,,Clear,0,2012-12-07 09:55:00
3:15 AM,35.6,24.8,65,29.90,10.0,NNW,6.9,-,N/A,,Clear,340,2012-12-07 10:15:00
3:35 AM,35.6,23.0,60,29.90,10.0,North,5.8,-,N/A,,Clear,350,2012-12-07 10:35:00
3:55 AM,37.4,24.8,60,29.89,10.0,NNW,5.8,-,N/A,,Clear,340,2012-12-07 10:55:00
5:50 AM,33.8,24.8,70,29.91,10.0,NNW,6.9,-,N/A,,Clear,330,2012-12-07 12:50:00
6:50 AM,32.0,23.0,69,29.93,10.0,Calm,Calm,-,N/A,,Clear,0,2012-12-07 13:50:00
7:47 AM,37.4,24.8,60,29.94,10.0,Calm,Calm,-,N/A,,Clear,0,2012-12-07 14:47:00
8:50 AM,46.4,24.8,43,29.93,10.0,Calm,Calm,-,N/A,,Clear,0,2012-12-07 15:50:00
9:50 AM,50.0,26.6,40,29.95,10.0,Calm,Calm,-,N/A,,Clear,0,2012-12-07 16:50:00
10:50 AM,53.6,26.6,35,29.93,10.0,Calm,Calm,-,N/A,,Clear,0,2012-12-07 17:50:00
11:50 AM,55.4,26.6,33,29.90,10.0,Calm,Calm,-,N/A,,Clear,0,2012-12-07 18:50:00
12:50 PM,59.0,24.8,27,29.87,10.0,Calm,Calm,-,N/A,,Clear,0,2012-12-07 19:50:00
1:50 PM,64.4,24.8,22,29.85,10.0,Calm,Calm,-,N/A,,Clear,0,2012-12-07 20:50:00
2:50 PM,66.2,26.6,23,29.84,10.0,Calm,Calm,-,N/A,,Clear,0,2012-12-07 21:50:00
3:50 PM,66.2,24.8,21,29.84,10.0,Calm,Calm,-,N/A,,Clear,0,2012-12-07 22:50:00
4:50 PM,60.8,23.0,23,29.84,10.0,Calm,Calm,-,N/A,,Clear,0,2012-12-07 23:50:00
5:15 PM,57.2,23.0,27,29.85,10.0,Calm,Calm,-,N/A,,Clear,0,2012-12-08 00:15:00
5:35 PM,57.2,23.0,27,29.85,10.0,Calm,Calm,-,N/A,,Clear,0,2012-12-08 00:35:00
5:45 PM,57.2,23.0,27,29.85,10.0,Calm,Calm,-,N/A,,Clear,0,2012-12-08 00:45:00
5:55 PM,57.2,23.0,27,29.86,10.0,Calm,Calm,-,N/A,,Clear,0,2012-12-08 00:55:00
6:15 PM,55.4,23.0,29,29.86,10.0,Calm,Calm,-,N/A,,Clear,0,2012-12-08 01:15:00
6:35 PM,55.4,23.0,29,29.87,10.0,Calm,Calm,-,N/A,,Clear,0,2012-12-08 01:35:00
6:55 PM,53.6,23.0,30,29.87,10.0,Calm,Calm,-,N/A,,Clear,0,2012-12-08 01:55:00
7:15 PM,50.0,23.0,35,29.88,10.0,Calm,Calm,-,N/A,,Clear,0,2012-12-08 02:15:00
7:35 PM,50.0,23.0,35,29.89,10.0,Calm,Calm,-,N/A,,Clear,0,2012-12-08 02:35:00
8:15 PM,48.2,23.0,37,29.89,10.0,Calm,Calm,-,N/A,,Clear,0,2012-12-08 03:15:00
8:35 PM,48.2,23.0,37,29.90,10.0,Calm,Calm,-,N/A,,Clear,0,2012-12-08 03:35:00
9:15 PM,46.4,23.0,40,29.90,10.0,SSW,8.1,-,N/A,,Clear,210,2012-12-08 04:15:00
9:35 PM,46.4,23.0,40,29.90,10.0,SSW,4.6,-,N/A,,Clear,210,2012-12-08 04:35:00
9:55 PM,44.6,23.0,43,29.90,10.0,West,5.8,-,N/A,,Clear,280,2012-12-08 04:55:00
10:15 PM,46.4,23.0,40,29.90,10.0,Calm,Calm,-,N/A,,Clear,0,2012-12-08 05:15:00
10:35 PM,44.6,23.0,43,29.90,10.0,Calm,Calm,-,N/A,,Clear,0,2012-12-08 05:35:00
10:55 PM,44.6,23.0,43,29.90,10.0,Calm,Calm,-,N/A,,Clear,0,2012-12-08 05:55:00
11:15 PM,41.0,23.0,49,29.90,10.0,Calm,Calm,-,N/A,,Clear,0,2012-12-08 06:15:00
11:35 PM,39.2,21.2,49,29.90,10.0,Calm,Calm,-,N/A,,Clear,0,2012-12-08 06:35:00
11:55 PM,37.4,21.2,52,29.90,10.0,Calm,Calm,-,N/A,,Clear,0,2012-12-08 06:55:00